Weather forecast for Liberland

Liberland, 87 m
N45.768, E18.872


Sounding

Red line — air temperature ˚C.
Blue line — thermal bubble temperature ˚C.
Green line — dew point temperature ˚C.
Wind speed is in meters per second.

Table forecast

GFS 0.25˚ model

temp. wind gust humid. clouds prec. press. hpbl
Tue18 00:00 19 20.0 nne 4 7 93 94 1.4 1017 141
03:00 18 29.0 nne 3 6 95 97 1.4 1016 129
06:00 17 31.0 nne 3 5 94 97 0.0 1016 100
09:00 20 37.0 ne 3 4 85 72 0.0 1017 276
12:00 24 14.0 nne 2 3 69 30 0.0 1017 676
15:00 27 40.0 ne 2 2 60 38 0.0 1015 1169
18:00 27 83.0 e 2 2 61 100 0.0 1014 1183
21:00 24 110.0 ese 1 1 72 58 0.0 1014 24
 
Wed19 00:00 20 124.0 se 4 8 90 100 1.8 1014 189
03:00 19 215.0 sw 2 2 90 100 2.8 1014 41
06:00 19 124.0 se 2 2 89 100 0.3 1013 27
09:00 21 141.0 se 2 2 79 93 0.3 1014 269
12:00 25 152.0 sse 2 2 68 57 0.0 1013 688
15:00 28 171.0 s 2 2 60 28 0.0 1012 1278
18:00 28 169.0 s 1 2 62 40 0.9 1010 1259
21:00 24 105.0 ese 1 2 77 24 1.8 1011 24
 
Thu20 00:00 21 182.0 s 1 1 88 65 3.5 1011 23
03:00 20 124.0 se 0 0 89 83 4.4 1011 23
06:00 19 256.0 wsw 0 0 90 70 0.1 1011 23
09:00 24 12.0 nne 0 1 80 36 0.3 1012 230
12:00 27 105.0 ese 1 1 70 0 1.2 1012 620
15:00 29 283.0 wnw 0 1 52 50 1.9 1011 1674
18:00 29 274.0 w 1 1 51 85 0.0 1010 1864
21:00 25 134.0 se 2 2 71 49 0.0 1010 26
 
Fri21 00:00 22 171.0 s 3 4 80 0 0.0 1011 50
03:00 20 188.0 s 1 2 87 0 0.0 1011 23
06:00 20 217.0 sw 2 2 87 0 0.2 1012 24
09:00 23 305.0 nw 2 5 73 0 0.3 1013 430
12:00 26 266.0 w 4 5 61 0 0.0 1013 567
15:00 28 266.0 w 4 5 58 0 0.0 1013 1152
18:00 28 298.0 wnw 3 4 62 0 0.0 1012 1238
21:00 24 360.0 n 2 3 79 0 0.0 1013 26
 
Sat22 00:00 21 46.0 ne 1 2 86 0 0.0 1015 23
03:00 20 14.0 nne 2 3 89 0 0.1 1015 52
06:00 18 33.0 nne 2 2 89 0 0.0 1015 31
09:00 22 16.0 nne 2 2 77 0 0.3 1016 284
12:00 26 348.0 nnw 1 1 65 0 0.1 1016 803
15:00 29 294.0 wnw 1 1 57 0 0.1 1015 1405
18:00 28 345.0 nnw 2 1 63 34 1.0 1014 1030
21:00 24 19.0 nne 3 3 80 18 1.0 1014 51
 

0.014 s